createdAt,value
2024-02-29T00:00:05.914Z,96.22
2024-02-29T00:01:06.031Z,94.65
2024-02-29T00:02:05.915Z,97.41
2024-02-29T00:03:05.913Z,97.09
2024-02-29T00:04:06.027Z,93.88
2024-02-29T00:56:05.200Z,97.36
2024-02-29T00:57:06.182Z,117.09
2024-02-29T00:58:06.221Z,154.25
2024-02-29T00:59:06.205Z,198.59
2024-02-29T01:00:06.233Z,247.15
2024-02-29T01:01:06.217Z,195.12
2024-02-29T01:02:06.221Z,182.16
2024-02-29T01:03:06.194Z,171.12
2024-02-29T01:04:06.216Z,161.32
2024-02-29T01:05:06.221Z,152.64
2024-02-29T01:06:06.195Z,147.26
2024-02-29T01:07:06.257Z,142.27
2024-02-29T01:08:06.201Z,136.76
2024-02-29T01:09:06.239Z,132.39
2024-02-29T01:10:06.289Z,127.87
2024-02-29T01:11:06.221Z,124.79
2024-02-29T01:12:06.321Z,119.28
2024-02-29T01:13:06.293Z,117.08
2024-02-29T01:14:06.243Z,113.82
2024-02-29T01:15:06.234Z,112.16
2024-02-29T01:16:06.386Z,110.92
2024-02-29T01:17:06.207Z,108.62
2024-02-29T01:18:06.239Z,107.47
2024-02-29T01:19:06.274Z,105.61
2024-02-29T01:20:06.213Z,104.15
2024-02-29T01:21:06.228Z,102.75
2024-02-29T01:22:06.280Z,100.28
2024-02-29T01:23:06.223Z,99.36
2024-02-29T01:24:06.236Z,97.47
2024-02-29T01:25:06.280Z,97.20
2024-02-29T01:26:06.219Z,97.52
2024-02-29T01:27:06.226Z,95.09
2024-02-29T01:28:06.283Z,95.29
2024-02-29T01:29:06.226Z,93.51
2024-02-29T01:30:06.225Z,93.54
2024-02-29T01:31:06.248Z,91.85
2024-02-29T01:32:15.501Z,92.33
2024-02-29T01:33:06.256Z,92.37
2024-02-29T01:34:06.273Z,92.43
2024-02-29T01:35:06.240Z,92.16
2024-02-29T01:36:06.243Z,91.22
2024-02-29T01:37:06.280Z,91.42
2024-02-29T01:38:06.236Z,89.60
2024-02-29T01:39:06.254Z,90.25
2024-02-29T01:40:06.324Z,88.83
2024-02-29T01:41:06.238Z,88.12
2024-02-29T01:42:06.241Z,88.27
2024-02-29T01:43:06.265Z,88.10
2024-02-29T01:44:06.281Z,87.68
2024-02-29T01:45:06.243Z,87.65
2024-02-29T01:46:06.300Z,84.64
2024-02-29T01:47:06.242Z,86.94
2024-02-29T01:48:06.290Z,87.31
2024-02-29T01:49:06.323Z,86.92
2024-02-29T01:50:06.251Z,85.75
2024-02-29T01:51:06.252Z,84.78
2024-02-29T01:52:06.347Z,85.06
2024-02-29T01:53:06.254Z,84.76
2024-02-29T01:54:06.261Z,84.75
2024-02-29T01:55:06.325Z,83.51
2024-02-29T01:56:06.266Z,84.58
2024-02-29T01:57:06.257Z,85.07
2024-02-29T01:58:06.294Z,83.97
2024-02-29T01:59:06.266Z,85.33
2024-02-29T02:00:06.876Z,83.87
2024-02-29T02:01:06.347Z,82.82
2024-02-29T02:02:06.263Z,83.57
2024-02-29T02:03:06.266Z,83.61
2024-02-29T02:04:06.344Z,83.54
2024-02-29T02:05:06.272Z,83.37
2024-02-29T02:06:06.292Z,82.97
2024-02-29T02:07:06.431Z,83.19
2024-02-29T02:08:06.278Z,82.07
2024-02-29T02:09:06.312Z,82.08
2024-02-29T02:10:06.300Z,82.42
2024-02-29T02:11:06.340Z,80.94
2024-02-29T02:12:06.297Z,81.33
2024-02-29T02:13:06.359Z,82.05
2024-02-29T02:14:06.286Z,81.82
2024-02-29T02:15:06.294Z,81.13
2024-02-29T02:16:06.392Z,82.29
2024-02-29T02:17:06.293Z,82.22
2024-02-29T02:18:06.324Z,81.94
2024-02-29T02:19:06.413Z,82.58
2024-02-29T02:20:06.300Z,83.14
2024-02-29T02:21:06.295Z,82.03
2024-02-29T02:22:06.432Z,81.34
2024-02-29T02:23:06.292Z,81.34
2024-02-29T02:24:06.299Z,82.02
2024-02-29T02:25:06.325Z,81.69
2024-02-29T02:26:06.299Z,79.56
2024-02-29T02:27:06.315Z,81.08
2024-02-29T02:28:06.356Z,82.67
2024-02-29T02:29:06.338Z,80.58
2024-02-29T02:30:06.310Z,82.39
2024-02-29T02:31:06.364Z,79.69
2024-02-29T02:32:06.334Z,81.72
2024-02-29T02:33:06.345Z,80.14
2024-02-29T02:34:06.376Z,82.30
2024-02-29T02:35:06.320Z,80.26
2024-02-29T02:36:06.330Z,81.35
2024-02-29T02:37:06.358Z,81.48
2024-02-29T02:38:06.312Z,83.22
2024-02-29T02:39:06.313Z,80.77
2024-02-29T02:41:05.326Z,81.50
2024-02-29T02:42:06.323Z,81.34
2024-02-29T02:44:05.339Z,80.54
2024-02-29T02:45:06.324Z,80.44
2024-02-29T02:46:06.336Z,80.49
2024-02-29T02:47:06.336Z,81.96
2024-02-29T02:48:06.504Z,79.55
2024-02-29T02:49:06.452Z,79.67
2024-02-29T02:50:06.359Z,81.77
2024-02-29T02:51:06.337Z,80.30
2024-02-29T02:52:06.354Z,80.21
2024-02-29T02:53:06.346Z,80.18
2024-02-29T02:54:06.339Z,81.56
2024-02-29T02:55:06.427Z,80.45
2024-02-29T02:56:06.353Z,82.25
2024-02-29T02:57:06.345Z,80.93
2024-02-29T02:58:06.379Z,80.85
2024-02-29T02:59:06.355Z,81.22
2024-02-29T03:00:06.386Z,80.18
2024-02-29T03:01:06.431Z,81.20
2024-02-29T03:02:06.458Z,78.90
2024-02-29T03:03:06.433Z,80.43
2024-02-29T03:04:06.510Z,79.96
2024-02-29T03:05:06.474Z,80.75
2024-02-29T03:06:06.480Z,80.77
2024-02-29T03:07:06.548Z,79.95
2024-02-29T03:08:06.516Z,79.69
2024-02-29T03:09:06.998Z,79.90
2024-02-29T03:10:06.624Z,81.27
2024-02-29T03:11:06.605Z,79.44
2024-02-29T03:12:06.624Z,80.62
2024-02-29T03:13:06.634Z,81.05
2024-02-29T03:14:06.621Z,81.15
2024-02-29T03:15:06.680Z,80.06
2024-02-29T03:16:06.754Z,81.46
2024-02-29T03:17:06.681Z,80.75
2024-02-29T03:18:06.774Z,80.52
2024-02-29T03:19:06.789Z,79.65
2024-02-29T03:20:06.822Z,79.94
2024-02-29T03:21:06.834Z,78.73
2024-02-29T03:22:06.976Z,81.86
2024-02-29T03:23:06.924Z,79.75
2024-02-29T03:24:06.972Z,79.89
2024-02-29T03:25:07.070Z,78.93
2024-02-29T03:26:07.075Z,80.01
2024-02-29T03:27:07.128Z,79.78
2024-02-29T03:28:07.255Z,81.48
2024-02-29T03:29:07.225Z,80.13
2024-02-29T03:30:07.260Z,79.90
2024-02-29T03:31:07.345Z,80.52
2024-02-29T03:32:07.361Z,80.74
2024-02-29T03:33:07.443Z,79.94
2024-02-29T03:34:07.511Z,80.29
2024-02-29T03:35:07.494Z,80.30
2024-02-29T03:36:07.568Z,80.61
2024-02-29T03:37:07.656Z,81.13
2024-02-29T03:38:07.653Z,80.05
2024-02-29T03:39:07.681Z,80.89
2024-02-29T03:40:07.814Z,81.19
2024-02-29T03:41:08.047Z,78.66
2024-02-29T03:42:07.852Z,80.46
2024-02-29T03:43:07.900Z,78.45
2024-02-29T03:44:07.917Z,80.81
2024-02-29T03:45:07.981Z,79.89
2024-02-29T03:46:08.071Z,80.99
2024-02-29T03:47:08.061Z,79.82
2024-02-29T03:48:08.157Z,80.75
2024-02-29T03:49:08.221Z,80.75
2024-02-29T03:50:08.213Z,81.29
2024-02-29T03:51:08.255Z,80.97
2024-02-29T03:52:08.413Z,81.97
2024-02-29T03:53:08.388Z,79.85
2024-02-29T03:54:08.414Z,80.53
2024-02-29T03:55:08.549Z,80.34
2024-02-29T03:56:08.529Z,81.57
2024-02-29T03:57:08.570Z,80.42
2024-02-29T03:58:08.647Z,79.91
2024-02-29T03:59:08.678Z,80.41
2024-02-29T04:00:08.728Z,80.14
2024-02-29T04:01:08.820Z,81.47
2024-02-29T04:02:08.816Z,80.91
2024-02-29T04:03:08.859Z,80.44
2024-02-29T04:04:09.015Z,79.89
2024-02-29T04:05:08.968Z,81.12
2024-02-29T04:06:09.021Z,80.92
2024-02-29T04:07:09.208Z,81.71
2024-02-29T04:08:09.148Z,81.12
2024-02-29T04:09:09.183Z,81.23
2024-02-29T04:10:09.330Z,81.26
2024-02-29T04:11:09.321Z,80.68
2024-02-29T04:12:09.349Z,80.12
2024-02-29T04:13:09.472Z,80.65
2024-02-29T04:14:09.450Z,80.50
2024-02-29T04:15:09.508Z,82.28
2024-02-29T04:16:09.601Z,80.84
2024-02-29T04:17:09.613Z,79.56
2024-02-29T04:18:09.713Z,79.81
2024-02-29T04:19:09.801Z,79.38
2024-02-29T04:20:09.998Z,80.18
2024-02-29T04:21:09.814Z,80.11
2024-02-29T04:22:09.922Z,79.35
2024-02-29T04:23:09.959Z,80.18
2024-02-29T04:24:09.992Z,80.79
2024-02-29T04:25:10.136Z,81.78
2024-02-29T04:26:10.076Z,81.01
2024-02-29T04:27:10.154Z,80.30
2024-02-29T04:28:10.225Z,80.60
2024-02-29T04:29:10.205Z,79.67
2024-02-29T04:30:10.218Z,80.72
2024-02-29T04:31:10.294Z,80.75
2024-02-29T04:32:10.253Z,81.22
2024-02-29T04:33:10.294Z,80.88
2024-02-29T04:34:10.374Z,81.92
2024-02-29T04:35:10.326Z,80.04
2024-02-29T04:36:10.315Z,81.06
2024-02-29T04:37:10.344Z,79.27
2024-02-29T04:38:10.340Z,80.26
2024-02-29T04:39:10.344Z,81.55
2024-02-29T04:40:11.530Z,81.06
2024-02-29T04:41:10.460Z,81.37
2024-02-29T04:42:17.640Z,50.00
2024-02-29T04:43:18.681Z,50.00
2024-02-29T04:44:18.645Z,50.00
2024-02-29T04:45:18.638Z,50.00
2024-02-29T04:46:18.716Z,50.00
2024-02-29T04:47:18.640Z,51.85
2024-02-29T04:48:18.660Z,51.62
2024-02-29T04:49:18.718Z,55.89
2024-02-29T04:50:18.661Z,50.62
2024-02-29T04:51:18.642Z,50.42
2024-02-29T04:52:18.663Z,50.58
2024-02-29T04:53:18.654Z,53.99
2024-02-29T04:54:18.650Z,52.26
2024-02-29T04:55:18.793Z,52.71
2024-02-29T04:56:18.662Z,52.14
2024-02-29T04:57:18.658Z,51.49
2024-02-29T04:58:18.732Z,52.38
2024-02-29T04:59:18.659Z,51.45
2024-02-29T05:00:18.649Z,52.16
2024-02-29T05:01:18.903Z,51.89
2024-02-29T05:02:18.662Z,52.58
2024-02-29T05:03:18.658Z,52.96
2024-02-29T05:04:18.698Z,54.26
2024-02-29T05:05:18.655Z,53.12
2024-02-29T05:06:18.670Z,50.13
2024-02-29T05:07:18.810Z,51.73
2024-02-29T05:08:18.671Z,55.13
2024-02-29T05:09:18.697Z,54.75
2024-02-29T05:10:18.732Z,53.20
2024-02-29T05:11:18.730Z,52.76
2024-02-29T05:12:18.668Z,53.60
2024-02-29T05:13:18.721Z,53.67
2024-02-29T05:14:18.682Z,54.87
2024-02-29T05:15:18.673Z,53.56
2024-02-29T05:16:18.729Z,54.36
2024-02-29T05:17:18.681Z,54.44
2024-02-29T05:18:18.681Z,53.76
2024-02-29T05:19:18.743Z,55.92
2024-02-29T05:20:18.679Z,52.60
2024-02-29T05:21:18.692Z,52.64
2024-02-29T05:22:18.775Z,52.06
2024-02-29T05:23:18.696Z,51.39
2024-02-29T05:24:18.704Z,52.52
2024-02-29T05:25:18.747Z,53.46
2024-02-29T05:26:18.694Z,53.09
2024-02-29T05:27:18.741Z,54.28
2024-02-29T05:28:18.781Z,53.18
2024-02-29T05:29:18.752Z,54.68
2024-02-29T05:30:18.714Z,54.31
2024-02-29T05:31:18.747Z,55.16
2024-02-29T05:32:19.264Z,54.96
2024-02-29T05:33:18.723Z,54.54
2024-02-29T05:34:18.827Z,54.42
2024-02-29T05:35:18.716Z,53.29
2024-02-29T05:36:18.740Z,54.69
2024-02-29T05:37:18.862Z,52.57
2024-02-29T05:38:18.724Z,56.83
2024-02-29T05:39:18.729Z,55.11
2024-02-29T05:40:18.793Z,53.44
2024-02-29T05:41:18.861Z,53.39
2024-02-29T05:42:18.739Z,55.12
2024-02-29T05:43:18.821Z,55.40
2024-02-29T05:44:18.736Z,55.09
2024-02-29T05:45:18.735Z,54.38
2024-02-29T05:46:18.813Z,52.76
2024-02-29T05:47:18.758Z,53.96
2024-02-29T05:48:18.746Z,54.22
2024-02-29T05:49:18.882Z,53.13
2024-02-29T05:50:18.793Z,55.97
2024-02-29T05:51:18.820Z,52.53
2024-02-29T05:52:18.958Z,54.19
2024-02-29T05:53:18.889Z,54.82
2024-02-29T05:54:18.941Z,54.13
2024-02-29T05:55:19.171Z,54.53
2024-02-29T05:56:18.992Z,55.08
2024-02-29T05:57:19.028Z,55.04
2024-02-29T05:58:19.152Z,53.71
2024-02-29T05:59:19.089Z,53.62
2024-02-29T06:00:19.073Z,53.21
2024-02-29T06:01:19.277Z,52.23
2024-02-29T06:02:19.093Z,54.04
2024-02-29T06:03:19.091Z,53.28
2024-02-29T06:04:19.306Z,55.24
2024-02-29T06:05:19.115Z,54.34
2024-02-29T06:06:19.139Z,53.84
2024-02-29T06:07:19.169Z,56.97
2024-02-29T06:08:19.172Z,56.96
2024-02-29T06:09:19.174Z,54.94
2024-02-29T06:10:19.296Z,55.15
2024-02-29T06:11:19.267Z,53.56
2024-02-29T06:12:19.200Z,54.59
2024-02-29T06:13:19.376Z,54.51
2024-02-29T06:14:19.230Z,55.42
2024-02-29T06:15:19.272Z,57.31
2024-02-29T06:16:19.308Z,57.23
2024-02-29T06:17:19.266Z,58.33
2024-02-29T06:18:19.273Z,57.62
2024-02-29T06:19:19.314Z,58.19
2024-02-29T06:20:19.300Z,50.27
2024-02-29T06:21:19.308Z,50.39
2024-02-29T06:22:19.425Z,49.56
2024-02-29T06:23:19.326Z,51.76
2024-02-29T06:24:20.125Z,53.84
2024-02-29T06:25:19.890Z,50.00
2024-02-29T06:26:19.358Z,50.68
2024-02-29T06:27:19.367Z,53.91
2024-02-29T06:28:22.954Z,53.31
2024-02-29T06:29:19.378Z,53.37
2024-02-29T06:30:19.378Z,53.03
2024-02-29T06:31:19.469Z,53.35
2024-02-29T06:32:19.379Z,52.69
2024-02-29T06:33:19.382Z,50.14
2024-02-29T06:34:19.489Z,51.74
2024-02-29T06:35:19.390Z,50.68
2024-02-29T06:36:19.384Z,52.28
2024-02-29T06:37:19.887Z,52.16
2024-02-29T06:38:19.382Z,51.61
2024-02-29T06:39:19.397Z,51.62
2024-02-29T06:40:19.511Z,51.88
2024-02-29T06:41:19.392Z,51.32
2024-02-29T06:42:19.393Z,51.95
2024-02-29T06:43:19.962Z,51.63
2024-02-29T06:44:19.702Z,53.01
2024-02-29T06:45:19.786Z,54.87
2024-02-29T06:46:19.566Z,50.92
2024-02-29T06:47:19.430Z,55.79
2024-02-29T06:48:19.402Z,52.28
2024-02-29T06:49:19.491Z,56.17
2024-02-29T06:50:19.802Z,54.65
2024-02-29T06:51:19.435Z,53.10
2024-02-29T06:52:19.582Z,56.11
2024-02-29T06:53:19.424Z,57.13
2024-02-29T06:54:19.800Z,60.24
2024-02-29T06:55:19.928Z,61.94
2024-02-29T06:56:19.425Z,64.30
2024-02-29T06:57:19.427Z,63.18
2024-02-29T06:58:19.858Z,63.48
2024-02-29T06:59:20.474Z,68.10
2024-02-29T07:00:26.850Z,71.48
2024-02-29T07:01:19.513Z,71.50
2024-02-29T07:02:19.477Z,72.62
2024-02-29T07:03:23.055Z,75.40
2024-02-29T07:04:19.586Z,72.12
2024-02-29T07:05:19.484Z,74.52
2024-02-29T07:06:19.838Z,79.55
2024-02-29T07:07:19.538Z,85.32
2024-02-29T07:08:22.695Z,93.37
2024-02-29T07:09:19.653Z,72.33
2024-02-29T07:10:19.673Z,75.15
2024-02-29T07:11:19.636Z,80.15
2024-02-29T07:12:19.704Z,88.52
2024-02-29T07:13:20.120Z,97.95
2024-02-29T07:14:19.608Z,97.71
2024-02-29T07:15:19.968Z,97.51
2024-02-29T07:16:19.782Z,94.81
2024-02-29T07:17:20.063Z,95.76
2024-02-29T07:18:19.549Z,96.93
2024-02-29T07:19:19.681Z,100.04
2024-02-29T07:20:19.542Z,97.83
2024-02-29T07:21:19.511Z,96.65
2024-02-29T07:22:19.749Z,98.80
2024-02-29T07:23:19.610Z,99.26
2024-02-29T07:24:20.441Z,97.43
2024-02-29T07:25:20.076Z,97.66
2024-02-29T07:26:19.547Z,98.94
2024-02-29T07:27:19.593Z,96.77
2024-02-29T07:28:20.163Z,97.24
2024-02-29T07:29:19.903Z,96.92
2024-02-29T07:30:19.949Z,95.75
2024-02-29T07:31:19.972Z,95.57
2024-02-29T07:32:20.060Z,95.33
2024-02-29T07:33:20.368Z,95.48
2024-02-29T07:34:20.760Z,96.06
2024-02-29T07:35:20.274Z,100.18
2024-02-29T07:36:20.048Z,101.60
2024-02-29T07:37:20.447Z,103.09
2024-02-29T07:38:20.428Z,106.35
2024-02-29T07:39:20.047Z,107.18
2024-02-29T07:40:20.434Z,108.90
2024-02-29T07:41:27.531Z,107.66
2024-02-29T07:42:20.944Z,107.78
2024-02-29T07:43:20.389Z,107.84
2024-02-29T07:44:20.647Z,108.11
2024-02-29T07:45:21.088Z,108.56
2024-02-29T07:46:20.695Z,108.21
2024-02-29T07:47:20.621Z,108.76
2024-02-29T07:48:20.575Z,109.02
2024-02-29T07:49:20.611Z,106.54
2024-02-29T07:50:20.416Z,105.48
2024-02-29T07:51:20.785Z,105.45
2024-02-29T07:52:20.449Z,106.90
2024-02-29T07:53:20.654Z,105.32
2024-02-29T07:54:20.430Z,103.91
2024-02-29T07:55:20.522Z,104.16
2024-02-29T07:56:20.712Z,103.47
2024-02-29T07:57:20.490Z,102.37
2024-02-29T07:58:20.630Z,102.15
2024-02-29T07:59:20.926Z,100.03
2024-02-29T08:00:20.440Z,100.56
2024-02-29T08:01:20.914Z,101.21
2024-02-29T08:02:22.502Z,100.33
2024-02-29T08:03:20.816Z,100.39
2024-02-29T08:04:20.820Z,100.81
2024-02-29T08:05:20.701Z,100.87
2024-02-29T08:06:20.895Z,100.83
2024-02-29T08:07:20.951Z,100.71
2024-02-29T08:08:20.973Z,101.00
2024-02-29T08:09:20.841Z,100.76
2024-02-29T08:10:20.894Z,99.54
2024-02-29T08:11:20.901Z,101.47
2024-02-29T08:12:20.713Z,102.99
2024-02-29T08:13:21.032Z,102.23
2024-02-29T08:14:21.316Z,98.80
2024-02-29T08:15:20.845Z,99.42
2024-02-29T08:16:20.838Z,97.40
2024-02-29T08:17:20.793Z,97.87
2024-02-29T08:18:20.850Z,97.85
2024-02-29T08:19:20.912Z,95.60
2024-02-29T08:20:20.404Z,95.11
2024-02-29T08:21:20.470Z,96.42
2024-02-29T08:22:20.574Z,95.86
2024-02-29T08:23:20.887Z,95.09
2024-02-29T08:24:20.690Z,95.44
2024-02-29T08:25:20.862Z,96.10
2024-02-29T08:26:20.822Z,96.39
2024-02-29T08:27:20.915Z,98.68
2024-02-29T08:28:21.716Z,99.83
2024-02-29T08:29:21.263Z,98.04
2024-02-29T08:30:21.654Z,99.02
2024-02-29T08:31:21.195Z,98.61
2024-02-29T08:32:21.282Z,98.49
2024-02-29T08:33:21.395Z,99.38
2024-02-29T08:34:21.404Z,101.77
2024-02-29T08:35:21.838Z,100.64
2024-02-29T08:36:21.474Z,99.89
2024-02-29T08:37:21.681Z,99.94
2024-02-29T08:38:21.616Z,96.76
2024-02-29T08:44:24.137Z,98.49
2024-02-29T08:45:22.976Z,101.70
2024-02-29T08:46:21.760Z,101.34
2024-02-29T08:47:21.851Z,108.98
2024-02-29T08:48:21.845Z,118.35
2024-02-29T08:49:22.413Z,128.70
2024-02-29T08:50:22.370Z,139.96
2024-02-29T08:51:22.000Z,136.90
2024-02-29T08:52:22.114Z,129.32
2024-02-29T08:53:22.349Z,123.53
2024-02-29T08:54:22.156Z,121.79
2024-02-29T08:55:22.385Z,115.56
2024-02-29T08:56:22.237Z,117.34
2024-02-29T08:57:22.304Z,114.45
2024-02-29T08:58:22.386Z,112.52
2024-02-29T08:59:22.406Z,110.79
2024-02-29T09:00:22.873Z,109.69
2024-02-29T09:01:22.611Z,105.88
2024-02-29T09:02:23.606Z,106.47
2024-02-29T09:03:22.653Z,105.78
2024-02-29T09:04:22.737Z,103.47
2024-02-29T09:05:22.847Z,100.81
2024-02-29T09:06:22.836Z,100.59
2024-02-29T09:07:23.013Z,96.92
2024-02-29T09:08:23.123Z,97.07
2024-02-29T09:09:23.368Z,95.28
2024-02-29T09:10:23.274Z,91.96
2024-02-29T09:11:23.222Z,88.23
2024-02-29T09:12:23.247Z,88.37
2024-02-29T09:13:30.387Z,87.88
2024-02-29T09:14:23.333Z,87.89
2024-02-29T09:15:23.355Z,86.68
2024-02-29T09:16:23.491Z,85.97
2024-02-29T09:17:23.337Z,86.81
2024-02-29T09:18:23.332Z,85.07
2024-02-29T09:19:23.586Z,81.14
2024-02-29T09:20:23.346Z,81.64
2024-02-29T09:21:23.338Z,79.41
2024-02-29T09:22:23.348Z,77.87
2024-02-29T09:23:23.334Z,80.12
2024-02-29T09:24:23.329Z,82.88
2024-02-29T09:25:23.342Z,79.95
2024-02-29T09:26:23.330Z,76.33
2024-02-29T09:27:23.339Z,77.55
2024-02-29T09:28:23.381Z,78.58
2024-02-29T09:29:26.632Z,75.10
2024-02-29T09:30:23.375Z,75.19
2024-02-29T09:31:26.616Z,74.30
2024-02-29T09:32:23.347Z,75.11
2024-02-29T09:33:23.340Z,71.57
2024-02-29T09:34:23.458Z,71.89
2024-02-29T09:35:23.351Z,73.03
2024-02-29T09:36:23.373Z,69.16
2024-02-29T09:37:23.430Z,67.99
2024-02-29T09:38:23.369Z,68.95
2024-02-29T09:39:23.363Z,69.02
2024-02-29T09:40:23.954Z,66.05
2024-02-29T09:41:40.765Z,66.98
2024-02-29T09:42:23.390Z,67.05
2024-02-29T09:43:23.434Z,67.08
2024-02-29T09:44:23.870Z,67.85
2024-02-29T09:45:25.311Z,64.26
2024-02-29T09:46:23.395Z,67.00
2024-02-29T09:47:23.402Z,62.72
2024-02-29T09:48:23.375Z,60.85
2024-02-29T09:49:23.370Z,58.06
2024-02-29T09:50:24.485Z,60.86
2024-02-29T09:51:23.878Z,67.26
2024-02-29T09:52:23.573Z,75.72
2024-02-29T09:53:23.502Z,80.33
2024-02-29T09:54:23.380Z,79.77
2024-02-29T09:55:23.404Z,77.83
2024-02-29T09:56:23.400Z,75.71
2024-02-29T09:57:23.384Z,75.89
2024-02-29T09:58:23.474Z,74.49
2024-02-29T09:59:23.453Z,73.10
2024-02-29T10:00:23.470Z,72.44
2024-02-29T10:01:24.326Z,74.00
2024-02-29T10:02:23.526Z,71.77
2024-02-29T10:03:23.515Z,70.49
2024-02-29T10:04:23.538Z,67.24
2024-02-29T10:05:23.500Z,63.54
2024-02-29T10:06:23.529Z,61.03
2024-02-29T10:07:23.624Z,63.02
2024-02-29T10:08:23.554Z,61.84
2024-02-29T10:09:23.563Z,61.56
2024-02-29T10:10:23.995Z,60.39
2024-02-29T10:11:23.671Z,59.79
2024-02-29T10:12:23.670Z,60.10
2024-02-29T10:13:23.712Z,58.83
2024-02-29T10:14:23.719Z,57.62
2024-02-29T10:15:23.890Z,56.67
2024-02-29T10:16:26.097Z,60.14
2024-02-29T10:17:23.765Z,60.22
2024-02-29T10:18:23.771Z,60.62
2024-02-29T10:19:24.176Z,55.76
2024-02-29T10:20:39.358Z,58.87
2024-02-29T10:21:23.892Z,60.11
2024-02-29T10:22:23.853Z,60.46
2024-02-29T10:23:23.778Z,60.20
2024-02-29T10:24:23.778Z,59.25
2024-02-29T10:25:23.937Z,62.14
2024-02-29T10:26:23.782Z,62.50
2024-02-29T10:27:23.797Z,61.43
2024-02-29T10:28:23.861Z,60.37
2024-02-29T10:29:25.081Z,59.53
2024-02-29T10:30:23.932Z,59.62
2024-02-29T10:31:23.869Z,60.46
2024-02-29T10:32:23.889Z,56.47
2024-02-29T10:33:23.921Z,56.58
2024-02-29T10:34:23.978Z,57.20
2024-02-29T10:35:23.938Z,57.05
2024-02-29T10:36:23.802Z,50.00
2024-02-29T10:37:23.945Z,53.34
2024-02-29T10:38:23.808Z,50.00
2024-02-29T10:39:23.895Z,50.51
2024-02-29T10:40:24.002Z,50.79
2024-02-29T10:41:23.802Z,50.00
2024-02-29T10:42:23.813Z,50.48
2024-02-29T10:43:23.887Z,52.72
2024-02-29T10:44:23.819Z,54.38
2024-02-29T10:45:26.703Z,55.01
2024-02-29T10:46:24.880Z,55.08
2024-02-29T10:47:23.850Z,55.49
2024-02-29T10:48:23.895Z,57.21
2024-02-29T10:49:23.923Z,57.96
2024-02-29T10:50:23.853Z,61.09
2024-02-29T10:51:27.179Z,61.39
2024-02-29T10:52:23.911Z,61.49
2024-02-29T10:53:23.838Z,61.65
2024-02-29T10:54:23.904Z,62.08
2024-02-29T10:55:23.878Z,62.26
2024-02-29T10:56:23.863Z,65.26
2024-02-29T10:57:23.830Z,60.57
2024-02-29T10:58:23.939Z,62.16
2024-02-29T10:59:23.834Z,60.90
2024-02-29T11:00:23.849Z,66.38
2024-02-29T11:01:23.951Z,62.82
2024-02-29T11:02:23.842Z,63.65
2024-02-29T11:03:23.920Z,65.78
2024-02-29T11:04:23.911Z,67.79
2024-02-29T11:05:23.921Z,67.91
2024-02-29T11:06:23.841Z,69.11
2024-02-29T11:07:23.964Z,69.21
2024-02-29T11:08:23.839Z,71.34
2024-02-29T11:09:27.292Z,71.45
2024-02-29T11:10:23.902Z,71.50
2024-02-29T11:11:23.996Z,71.64
2024-02-29T11:12:23.899Z,71.75
2024-02-29T11:13:23.917Z,72.37
2024-02-29T11:14:23.852Z,73.87
2024-02-29T11:15:25.077Z,73.38
2024-02-29T11:16:24.047Z,74.33
2024-02-29T11:17:24.479Z,74.29
2024-02-29T11:18:23.922Z,74.70
2024-02-29T11:19:24.548Z,73.61
2024-02-29T11:20:24.462Z,69.37
2024-02-29T11:21:23.909Z,73.71
2024-02-29T11:22:23.958Z,72.25
2024-02-29T11:23:23.937Z,74.71
2024-02-29T11:24:24.051Z,75.47
2024-02-29T11:25:24.553Z,78.39
2024-02-29T11:26:24.403Z,75.68
2024-02-29T11:27:23.924Z,76.69
2024-02-29T11:28:24.339Z,74.32
2024-02-29T11:29:23.977Z,74.95
2024-02-29T11:30:24.526Z,73.15
2024-02-29T11:31:23.948Z,74.28
2024-02-29T11:32:23.930Z,76.92
2024-02-29T11:33:23.974Z,79.90
2024-02-29T11:34:23.949Z,81.67
2024-02-29T11:35:24.417Z,83.03
2024-02-29T11:36:23.920Z,83.62
2024-02-29T11:37:26.699Z,81.59
2024-02-29T11:38:29.261Z,81.68
2024-02-29T11:39:24.044Z,81.81
2024-02-29T11:40:23.996Z,82.85
2024-02-29T11:41:23.946Z,84.54
2024-02-29T11:42:23.943Z,85.86
2024-02-29T11:43:26.106Z,87.57
2024-02-29T11:44:23.981Z,81.88
2024-02-29T11:45:24.068Z,82.46
2024-02-29T11:46:23.979Z,83.77
2024-02-29T11:47:23.940Z,82.86
2024-02-29T11:48:23.939Z,83.30
2024-02-29T11:49:24.093Z,80.25
2024-02-29T11:50:24.412Z,78.07
2024-02-29T11:51:23.947Z,79.37
2024-02-29T11:52:23.992Z,78.37
2024-02-29T11:53:23.948Z,74.83
2024-02-29T11:54:26.638Z,74.28
2024-02-29T11:55:24.155Z,74.31
2024-02-29T11:56:24.421Z,70.32
2024-02-29T11:57:23.954Z,71.30
2024-02-29T11:58:24.067Z,68.23
2024-02-29T11:59:23.951Z,72.56
2024-02-29T12:00:23.968Z,71.51
2024-02-29T12:01:24.065Z,66.70
2024-02-29T12:02:23.960Z,65.66
2024-02-29T12:03:23.972Z,66.54
2024-02-29T12:04:24.040Z,70.04
2024-02-29T12:05:23.962Z,72.98
2024-02-29T12:06:23.964Z,69.59
2024-02-29T12:07:24.057Z,70.81
2024-02-29T12:08:23.968Z,68.75
2024-02-29T12:09:23.983Z,64.71
2024-02-29T12:10:23.978Z,63.94
2024-02-29T12:11:24.491Z,64.82
2024-02-29T12:12:24.001Z,72.96
2024-02-29T12:13:24.040Z,76.35
2024-02-29T12:14:24.051Z,77.92
2024-02-29T12:15:24.446Z,80.82
2024-02-29T12:16:23.977Z,77.73
2024-02-29T12:17:24.024Z,77.12
2024-02-29T12:18:24.036Z,73.28
2024-02-29T12:19:24.060Z,65.27
2024-02-29T12:20:23.992Z,59.52
2024-02-29T12:21:23.981Z,59.95
2024-02-29T12:22:24.066Z,61.47
2024-02-29T12:23:24.446Z,57.69
2024-02-29T12:24:24.063Z,59.94
2024-02-29T12:25:24.142Z,59.95
2024-02-29T12:26:24.120Z,58.80
2024-02-29T12:27:24.274Z,59.00
2024-02-29T12:28:24.280Z,60.05
2024-02-29T12:29:24.272Z,59.66
2024-02-29T12:30:24.247Z,59.12
2024-02-29T12:31:24.303Z,59.34
2024-02-29T12:32:24.280Z,57.28
2024-02-29T12:33:27.276Z,54.08
2024-02-29T12:34:24.619Z,54.15
2024-02-29T12:35:24.570Z,53.17
2024-02-29T12:36:24.636Z,52.99
2024-02-29T12:37:24.668Z,51.60
2024-02-29T12:38:24.700Z,52.59
2024-02-29T12:39:24.766Z,54.17
2024-02-29T12:40:24.979Z,55.57
2024-02-29T12:41:24.913Z,54.48
2024-02-29T12:42:25.027Z,53.87
2024-02-29T12:43:25.229Z,55.03
2024-02-29T12:44:25.176Z,56.59
2024-02-29T12:45:25.189Z,56.48
2024-02-29T12:46:25.347Z,56.30
2024-02-29T12:47:25.309Z,59.47
2024-02-29T12:48:25.367Z,57.79
2024-02-29T12:49:25.506Z,60.60
2024-02-29T12:50:25.489Z,62.61
2024-02-29T12:51:25.535Z,68.06
2024-02-29T12:52:25.622Z,78.77
2024-02-29T12:53:25.660Z,84.20
2024-02-29T12:54:25.690Z,87.60
2024-02-29T12:55:25.818Z,89.16
2024-02-29T12:56:25.832Z,90.21
2024-02-29T12:57:25.860Z,89.89
2024-02-29T12:58:25.985Z,91.93
2024-02-29T12:59:26.031Z,92.46
2024-02-29T13:00:25.946Z,92.65
2024-02-29T13:01:26.191Z,92.21
2024-02-29T13:02:26.058Z,93.48
2024-02-29T13:03:26.060Z,90.25
2024-02-29T13:04:26.476Z,86.73
2024-02-29T13:05:26.112Z,89.61
2024-02-29T13:06:26.472Z,87.61
2024-02-29T13:07:26.269Z,88.90
2024-02-29T13:08:26.230Z,88.33
2024-02-29T13:09:26.467Z,88.51
2024-02-29T13:10:26.427Z,86.27
2024-02-29T13:11:26.377Z,84.46
2024-02-29T13:12:26.446Z,81.79
2024-02-29T13:13:26.473Z,81.40
2024-02-29T13:14:26.473Z,78.47
2024-02-29T13:15:26.563Z,78.66
2024-02-29T13:16:26.632Z,78.94
2024-02-29T13:17:26.690Z,78.64
2024-02-29T13:18:26.759Z,77.53
2024-02-29T13:19:26.874Z,79.09
2024-02-29T13:20:26.890Z,79.83
2024-02-29T13:21:26.968Z,79.75
2024-02-29T13:22:27.078Z,78.33
2024-02-29T13:23:27.056Z,80.34
2024-02-29T13:24:27.136Z,81.28
2024-02-29T13:25:27.288Z,81.87
2024-02-29T13:26:27.256Z,81.95
2024-02-29T13:27:27.366Z,79.04
2024-02-29T13:28:27.443Z,80.77
2024-02-29T13:29:27.447Z,78.40
2024-02-29T13:30:28.129Z,79.31
2024-02-29T13:31:27.621Z,78.59
2024-02-29T13:32:27.647Z,78.34
2024-02-29T13:33:27.818Z,79.84
2024-02-29T13:34:27.870Z,79.68
2024-02-29T13:35:27.845Z,82.11
2024-02-29T13:36:27.914Z,80.30
2024-02-29T13:37:28.008Z,82.24
2024-02-29T13:38:28.050Z,79.92
2024-02-29T13:39:28.118Z,84.13
2024-02-29T13:40:28.548Z,78.81
2024-02-29T13:41:28.461Z,78.18
2024-02-29T13:42:28.306Z,77.38
2024-02-29T13:43:28.388Z,79.99
2024-02-29T13:44:28.463Z,77.76
2024-02-29T13:45:28.534Z,76.78
2024-02-29T13:46:28.727Z,76.91
2024-02-29T13:47:28.684Z,76.21